CST,Max TemperatureF,Mean TemperatureF,Min TemperatureF,Max Dew PointF,MeanDew PointF,Min DewpointF,Max Humidity, Mean Humidity, Min Humidity, Max Sea Level PressureIn, Mean Sea Level PressureIn, Min Sea Level PressureIn, Max VisibilityMiles, Mean VisibilityMiles, Min VisibilityMiles, Max Wind SpeedMPH, Mean Wind SpeedMPH, Max Gust SpeedMPH,PrecipitationIn, CloudCover, Events, WindDirDegrees
2013-1-1,24,15,6,18,12,3,92,83,74,30.36,30.25,30.18,10,6,0,15,9,18,0.00,3,Fog,262
2013-1-2,35,24,12,27,21,8,88,79,69,30.32,30.19,30.07,10,10,9,18,10,22,T,7,,287
2013-1-3,29,23,17,25,18,13,92,78,63,30.47,30.37,30.28,10,10,10,15,9,16,T,4,,278
2013-1-4,35,22,9,20,12,5,88,72,56,30.33,30.25,30.12,10,10,10,14,8,17,0.00,0,,228
2013-1-5,41,26,10,28,17,7,84,69,54,30.31,30.16,30.09,10,10,8,23,12,29,0.00,0,,279
2013-1-6,38,27,15,25,18,12,88,71,54,30.37,30.26,30.07,10,10,10,26,11,35,0.00,0,,231
2013-1-7,38,27,15,26,21,14,92,78,64,30.06,30.00,29.91,10,7,0,25,7,30,0.00,0,Fog,223
2013-1-8,39,26,12,31,17,9,95,83,67,30.23,29.93,29.82,10,5,0,14,4,,0.00,3,Fog,239
2013-1-9,43,31,18,30,25,17,92,75,57,30.45,30.36,30.27,10,10,10,17,9,21,0.00,0,,220
2013-1-10,37,35,33,36,32,26,100,92,60,30.30,29.90,29.64,10,4,0,15,9,,0.01,6,Fog-Rain,165
2013-1-11,39,30,21,38,33,14,100,87,74,29.87,29.51,29.36,10,4,0,31,11,38,T,7,Fog-Rain,232
2013-1-12,21,15,8,12,6,3,80,68,56,30.25,30.13,29.90,10,10,10,29,16,36,0.00,1,,317
2013-1-13,21,13,5,7,3,-1,83,65,47,30.41,30.32,30.25,10,10,10,17,10,20,0.00,0,,300
2013-1-14,27,16,4,12,8,0,86,68,50,30.53,30.43,30.29,10,10,10,12,6,14,0.00,3,,233
2013-1-15,31,22,13,18,13,8,88,73,58,30.37,30.24,30.00,10,10,10,20,10,22,0.00,0,,226
2013-1-16,52,37,21,30,26,13,85,63,41,30.32,30.10,29.97,10,10,10,22,12,28,0.00,2,,286
2013-1-17,49,38,26,32,28,23,92,71,50,30.50,30.39,30.27,10,10,10,13,8,15,0.00,0,,249
2013-1-18,52,43,33,33,29,26,76,63,50,30.24,30.04,29.90,10,10,10,22,13,29,0.00,0,,229
2013-1-19,55,41,27,28,26,19,85,59,32,30.35,30.11,29.91,10,10,10,25,14,37,0.00,0,,312
2013-1-20,26,22,18,16,13,10,77,66,55,30.48,30.40,30.31,10,10,10,16,7,20,0.00,2,,35
2013-1-21,21,16,11,14,8,5,84,76,68,30.50,30.42,30.28,10,8,2,15,6,17,0.01,8,Snow,57
2013-1-22,26,20,13,15,10,5,77,66,55,30.39,30.32,30.26,10,10,10,15,8,18,0.00,2,,163
2013-1-23,36,24,12,20,14,4,88,70,51,30.53,30.33,30.15,10,10,10,21,10,26,0.00,0,,360
2013-1-24,21,13,5,9,4,-1,88,67,45,30.54,30.36,30.10,10,10,10,17,11,21,0.00,3,,143
2013-1-25,53,35,17,29,21,9,92,60,28,30.27,30.21,30.19,10,10,10,10,6,14,0.00,0,,242
2013-1-26,54,40,26,34,26,22,92,64,35,30.20,30.08,29.94,10,10,10,26,11,32,0.00,0,,166
2013-1-27,43,38,32,41,37,32,100,87,73,29.91,29.78,29.69,10,3,0,17,7,23,0.06,5,Fog-Rain,179
2013-1-28,38,34,29,37,34,28,100,96,92,29.84,29.74,29.61,4,1,0,21,5,25,0.00,5,Fog,126
2013-1-29,36,33,30,32,29,25,100,88,75,29.81,29.72,29.65,10,8,1,29,14,35,T,8,Snow,347
2013-1-30,30,25,20,27,15,11,91,73,55,29.98,29.90,29.75,10,8,2,37,16,43,T,7,Snow,332
2013-1-31,22,15,7,13,1,-4,80,61,42,30.48,30.29,29.98,10,10,10,35,15,43,T,5,,335